sensor_id;sensor_type;location;lat;lon;timestamp;pressure;altitude;pressure_sealevel;temperature
24201;BMP280;2801;50.972;7.856;2023-09-18T00:00:49;96887.38;;;19.15
24201;BMP280;2801;50.972;7.856;2023-09-18T00:03:20;96886.22;;;19.12
24201;BMP280;2801;50.972;7.856;2023-09-18T00:05:52;96882.75;;;19.08
24201;BMP280;2801;50.972;7.856;2023-09-18T00:08:20;96880.44;;;19.07
24201;BMP280;2801;50.972;7.856;2023-09-18T00:10:51;96878.91;;;19.02
24201;BMP280;2801;50.972;7.856;2023-09-18T00:13:19;96871.13;;;19.01
24201;BMP280;2801;50.972;7.856;2023-09-18T00:15:46;96871.53;;;18.99
24201;BMP280;2801;50.972;7.856;2023-09-18T00:18:15;96861.06;;;18.98
24201;BMP280;2801;50.972;7.856;2023-09-18T00:20:43;96857.56;;;18.94
24201;BMP280;2801;50.972;7.856;2023-09-18T00:23:11;96859.88;;;18.92
24201;BMP280;2801;50.972;7.856;2023-09-18T00:25:38;96862.63;;;18.88
24201;BMP280;2801;50.972;7.856;2023-09-18T00:28:07;96859.91;;;18.88
24201;BMP280;2801;50.972;7.856;2023-09-18T00:30:38;96852.16;;;18.87
24201;BMP280;2801;50.972;7.856;2023-09-18T00:33:09;96851.75;;;18.88
24201;BMP280;2801;50.972;7.856;2023-09-18T00:35:36;96845.16;;;18.89
24201;BMP280;2801;50.972;7.856;2023-09-18T00:38:03;96834.28;;;18.89
24201;BMP280;2801;50.972;7.856;2023-09-18T00:40:30;96835.84;;;18.90
24201;BMP280;2801;50.972;7.856;2023-09-18T00:42:57;96831.97;;;18.91
24201;BMP280;2801;50.972;7.856;2023-09-18T00:45:24;96823.44;;;18.93
24201;BMP280;2801;50.972;7.856;2023-09-18T00:47:52;96817.97;;;18.96
24201;BMP280;2801;50.972;7.856;2023-09-18T00:50:19;96817.97;;;19.00
24201;BMP280;2801;50.972;7.856;2023-09-18T00:52:46;96823.78;;;19.02
24201;BMP280;2801;50.972;7.856;2023-09-18T00:55:13;96822.22;;;19.08
24201;BMP280;2801;50.972;7.856;2023-09-18T00:57:42;96815.22;;;19.10
24201;BMP280;2801;50.972;7.856;2023-09-18T01:00:10;96817.94;;;19.17
24201;BMP280;2801;50.972;7.856;2023-09-18T01:02:37;96811.28;;;19.22
24201;BMP280;2801;50.972;7.856;2023-09-18T01:05:06;96802.38;;;19.21
24201;BMP280;2801;50.972;7.856;2023-09-18T01:07:33;96794.59;;;19.23
24201;BMP280;2801;50.972;7.856;2023-09-18T01:10:00;96801.97;;;19.30
24201;BMP280;2801;50.972;7.856;2023-09-18T01:13:06;96798.88;;;19.31
24201;BMP280;2801;50.972;7.856;2023-09-18T01:15:48;96796.91;;;19.35
24201;BMP280;2801;50.972;7.856;2023-09-18T01:18:18;96794.94;;;19.39
24201;BMP280;2801;50.972;7.856;2023-09-18T01:20:45;96794.16;;;19.46
24201;BMP280;2801;50.972;7.856;2023-09-18T01:23:12;96789.06;;;19.51
24201;BMP280;2801;50.972;7.856;2023-09-18T01:25:39;96789.84;;;19.52
24201;BMP280;2801;50.972;7.856;2023-09-18T01:28:06;96791.38;;;19.56
24201;BMP280;2801;50.972;7.856;2023-09-18T01:30:33;96790.19;;;19.61
24201;BMP280;2801;50.972;7.856;2023-09-18T01:33:03;96795.19;;;19.66
24201;BMP280;2801;50.972;7.856;2023-09-18T01:35:33;96792.44;;;19.69
24201;BMP280;2801;50.972;7.856;2023-09-18T01:38:01;96794.78;;;19.71
24201;BMP280;2801;50.972;7.856;2023-09-18T01:40:30;96794.78;;;19.74
24201;BMP280;2801;50.972;7.856;2023-09-18T01:42:58;96788.16;;;19.75
24201;BMP280;2801;50.972;7.856;2023-09-18T01:45:25;96790.84;;;19.79
24201;BMP280;2801;50.972;7.856;2023-09-18T01:47:52;96789.28;;;19.81
24201;BMP280;2801;50.972;7.856;2023-09-18T01:50:19;96782.66;;;19.82
24201;BMP280;2801;50.972;7.856;2023-09-18T01:52:46;96778.78;;;19.83
24201;BMP280;2801;50.972;7.856;2023-09-18T01:55:13;96777.97;;;19.83
24201;BMP280;2801;50.972;7.856;2023-09-18T01:57:40;96774.06;;;19.87
24201;BMP280;2801;50.972;7.856;2023-09-18T02:00:09;96773.31;;;19.87
24201;BMP280;2801;50.972;7.856;2023-09-18T02:02:37;96765.09;;;19.94
24201;BMP280;2801;50.972;7.856;2023-09-18T02:05:24;96766.22;;;20.00
24201;BMP280;2801;50.972;7.856;2023-09-18T02:07:51;96758.41;;;20.02
24201;BMP280;2801;50.972;7.856;2023-09-18T02:10:19;96752.22;;;20.01
24201;BMP280;2801;50.972;7.856;2023-09-18T02:12:46;96752.19;;;20.05
24201;BMP280;2801;50.972;7.856;2023-09-18T02:15:13;96747.88;;;20.07
24201;BMP280;2801;50.972;7.856;2023-09-18T02:17:40;96736.59;;;20.09
24201;BMP280;2801;50.972;7.856;2023-09-18T02:20:08;96737.38;;;20.13
24201;BMP280;2801;50.972;7.856;2023-09-18T02:22:38;96743.19;;;20.15
24201;BMP280;2801;50.972;7.856;2023-09-18T02:25:08;96754.44;;;20.17
24201;BMP280;2801;50.972;7.856;2023-09-18T02:27:35;96776.59;;;20.19
24201;BMP280;2801;50.972;7.856;2023-09-18T02:30:03;96790.94;;;20.23
24201;BMP280;2801;50.972;7.856;2023-09-18T02:32:30;96786.69;;;20.22
24201;BMP280;2801;50.972;7.856;2023-09-18T02:34:57;96788.22;;;20.23
24201;BMP280;2801;50.972;7.856;2023-09-18T02:37:24;96792.09;;;20.25
24201;BMP280;2801;50.972;7.856;2023-09-18T02:39:51;96780.78;;;20.27
24201;BMP280;2801;50.972;7.856;2023-09-18T02:42:18;96778.06;;;20.30
24201;BMP280;2801;50.972;7.856;2023-09-18T02:44:44;96778.81;;;20.34
24201;BMP280;2801;50.972;7.856;2023-09-18T02:47:11;96768.31;;;20.33
24201;BMP280;2801;50.972;7.856;2023-09-18T02:49:38;96759.34;;;20.36
24201;BMP280;2801;50.972;7.856;2023-09-18T02:52:05;96753.84;;;20.39
24201;BMP280;2801;50.972;7.856;2023-09-18T02:54:32;96734.34;;;20.44
24201;BMP280;2801;50.972;7.856;2023-09-18T02:56:59;96724.53;;;20.54
24201;BMP280;2801;50.972;7.856;2023-09-18T02:59:26;96722.16;;;20.59
24201;BMP280;2801;50.972;7.856;2023-09-18T03:01:53;96715.94;;;20.59
24201;BMP280;2801;50.972;7.856;2023-09-18T03:04:20;96692.25;;;20.52
24201;BMP280;2801;50.972;7.856;2023-09-18T03:06:47;96679.50;;;20.49
24201;BMP280;2801;50.972;7.856;2023-09-18T03:09:14;96682.34;;;20.35
24201;BMP280;2801;50.972;7.856;2023-09-18T03:11:42;96673.97;;;20.16
24201;BMP280;2801;50.972;7.856;2023-09-18T03:14:10;96648.47;;;19.99
24201;BMP280;2801;50.972;7.856;2023-09-18T03:16:37;96647.81;;;19.85
24201;BMP280;2801;50.972;7.856;2023-09-18T03:19:04;96654.16;;;19.71
24201;BMP280;2801;50.972;7.856;2023-09-18T03:21:31;96649.97;;;19.63
24201;BMP280;2801;50.972;7.856;2023-09-18T03:24:00;96651.94;;;19.59
24201;BMP280;2801;50.972;7.856;2023-09-18T03:26:27;96644.19;;;19.54
24201;BMP280;2801;50.972;7.856;2023-09-18T03:28:54;96624.81;;;19.52
24201;BMP280;2801;50.972;7.856;2023-09-18T03:31:21;96634.88;;;19.52
24201;BMP280;2801;50.972;7.856;2023-09-18T03:33:48;96638.00;;;19.50
24201;BMP280;2801;50.972;7.856;2023-09-18T03:36:15;96638.41;;;19.49
24201;BMP280;2801;50.972;7.856;2023-09-18T03:38:43;96614.00;;;19.42
24201;BMP280;2801;50.972;7.856;2023-09-18T03:41:09;96611.25;;;19.45
24201;BMP280;2801;50.972;7.856;2023-09-18T03:43:36;96607.41;;;19.43
24201;BMP280;2801;50.972;7.856;2023-09-18T03:46:05;96604.28;;;19.41
24201;BMP280;2801;50.972;7.856;2023-09-18T03:48:33;96609.38;;;19.39
24201;BMP280;2801;50.972;7.856;2023-09-18T03:51:07;96613.28;;;19.34
24201;BMP280;2801;50.972;7.856;2023-09-18T03:53:35;96629.22;;;19.32
24201;BMP280;2801;50.972;7.856;2023-09-18T03:56:03;96630.03;;;19.29
24201;BMP280;2801;50.972;7.856;2023-09-18T03:58:30;96640.16;;;19.25
24201;BMP280;2801;50.972;7.856;2023-09-18T04:00:58;96650.63;;;19.20
24201;BMP280;2801;50.972;7.856;2023-09-18T04:03:25;96658.00;;;19.19
24201;BMP280;2801;50.972;7.856;2023-09-18T04:05:52;96666.16;;;19.19
24201;BMP280;2801;50.972;7.856;2023-09-18T04:08:19;96670.41;;;19.20
24201;BMP280;2801;50.972;7.856;2023-09-18T04:10:46;96668.06;;;19.22
24201;BMP280;2801;50.972;7.856;2023-09-18T04:13:13;96655.28;;;19.23
24201;BMP280;2801;50.972;7.856;2023-09-18T04:15:40;96652.56;;;19.23
24201;BMP280;2801;50.972;7.856;2023-09-18T04:18:07;96653.31;;;19.23
24201;BMP280;2801;50.972;7.856;2023-09-18T04:20:34;96645.56;;;19.22
24201;BMP280;2801;50.972;7.856;2023-09-18T04:23:35;96653.75;;;19.18
24201;BMP280;2801;50.972;7.856;2023-09-18T04:26:03;96654.09;;;19.20
24201;BMP280;2801;50.972;7.856;2023-09-18T04:28:30;96654.13;;;19.17
24201;BMP280;2801;50.972;7.856;2023-09-18T04:30:57;96638.22;;;19.15
24201;BMP280;2801;50.972;7.856;2023-09-18T04:33:24;96643.66;;;19.15
24201;BMP280;2801;50.972;7.856;2023-09-18T04:35:52;96637.84;;;19.13
24201;BMP280;2801;50.972;7.856;2023-09-18T04:38:19;96630.13;;;19.08
24201;BMP280;2801;50.972;7.856;2023-09-18T04:40:46;96607.63;;;19.08
24201;BMP280;2801;50.972;7.856;2023-09-18T04:43:14;96589.03;;;19.03
24201;BMP280;2801;50.972;7.856;2023-09-18T04:45:40;96592.16;;;18.98
24201;BMP280;2801;50.972;7.856;2023-09-18T04:48:09;96588.31;;;18.95
24201;BMP280;2801;50.972;7.856;2023-09-18T04:50:36;96587.94;;;18.90
24201;BMP280;2801;50.972;7.856;2023-09-18T04:53:03;96591.06;;;18.88
24201;BMP280;2801;50.972;7.856;2023-09-18T04:55:31;96588.34;;;18.85
24201;BMP280;2801;50.972;7.856;2023-09-18T04:57:58;96586.06;;;18.80
24201;BMP280;2801;50.972;7.856;2023-09-18T05:00:25;96596.16;;;18.76
24201;BMP280;2801;50.972;7.856;2023-09-18T05:02:53;96605.53;;;18.68
24201;BMP280;2801;50.972;7.856;2023-09-18T05:05:20;96605.94;;;18.59
24201;BMP280;2801;50.972;7.856;2023-09-18T05:07:48;96604.41;;;18.58
24201;BMP280;2801;50.972;7.856;2023-09-18T05:10:15;96596.66;;;18.57
24201;BMP280;2801;50.972;7.856;2023-09-18T05:12:42;96594.72;;;18.54
24201;BMP280;2801;50.972;7.856;2023-09-18T05:15:09;96577.69;;;18.50
24201;BMP280;2801;50.972;7.856;2023-09-18T05:17:47;96589.31;;;18.47
24201;BMP280;2801;50.972;7.856;2023-09-18T05:20:16;96600.19;;;18.47
24201;BMP280;2801;50.972;7.856;2023-09-18T05:22:45;96611.03;;;18.50
24201;BMP280;2801;50.972;7.856;2023-09-18T05:25:13;96624.97;;;18.52
24201;BMP280;2801;50.972;7.856;2023-09-18T05:27:42;96629.25;;;18.53
24201;BMP280;2801;50.972;7.856;2023-09-18T05:30:19;96623.81;;;18.53
24201;BMP280;2801;50.972;7.856;2023-09-18T05:32:48;96619.56;;;18.49
24201;BMP280;2801;50.972;7.856;2023-09-18T05:35:16;96618.78;;;18.48
24201;BMP280;2801;50.972;7.856;2023-09-18T05:37:44;96609.88;;;18.44
24201;BMP280;2801;50.972;7.856;2023-09-18T05:40:13;96613.75;;;18.47
24201;BMP280;2801;50.972;7.856;2023-09-18T05:42:42;96624.22;;;18.48
24201;BMP280;2801;50.972;7.856;2023-09-18T05:45:12;96641.25;;;18.52
24201;BMP280;2801;50.972;7.856;2023-09-18T05:47:39;96648.63;;;18.55
24201;BMP280;2801;50.972;7.856;2023-09-18T05:50:09;96658.31;;;18.60
24201;BMP280;2801;50.972;7.856;2023-09-18T05:52:36;96661.38;;;18.65
24201;BMP280;2801;50.972;7.856;2023-09-18T05:55:03;96652.06;;;18.66
24201;BMP280;2801;50.972;7.856;2023-09-18T05:57:31;96657.09;;;18.68
24201;BMP280;2801;50.972;7.856;2023-09-18T05:59:58;96650.88;;;18.71
24201;BMP280;2801;50.972;7.856;2023-09-18T06:02:26;96636.91;;;18.76
24201;BMP280;2801;50.972;7.856;2023-09-18T06:05:00;96638.44;;;18.80
24201;BMP280;2801;50.972;7.856;2023-09-18T06:07:28;96631.78;;;18.88
24201;BMP280;2801;50.972;7.856;2023-09-18T06:09:55;96627.09;;;18.96
24201;BMP280;2801;50.972;7.856;2023-09-18T06:12:23;96613.09;;;19.01
24201;BMP280;2801;50.972;7.856;2023-09-18T06:14:51;96634.00;;;19.07
24201;BMP280;2801;50.972;7.856;2023-09-18T06:17:18;96648.69;;;19.13
24201;BMP280;2801;50.972;7.856;2023-09-18T06:19:45;96653.72;;;19.22
24201;BMP280;2801;50.972;7.856;2023-09-18T06:22:13;96654.47;;;19.29
24201;BMP280;2801;50.972;7.856;2023-09-18T06:24:41;96653.69;;;19.32
24201;BMP280;2801;50.972;7.856;2023-09-18T06:27:08;96651.69;;;19.40
24201;BMP280;2801;50.972;7.856;2023-09-18T06:29:36;96657.44;;;19.49
24201;BMP280;2801;50.972;7.856;2023-09-18T06:32:14;96666.31;;;19.56
24201;BMP280;2801;50.972;7.856;2023-09-18T06:34:41;96664.00;;;19.55
24201;BMP280;2801;50.972;7.856;2023-09-18T06:37:10;96671.72;;;19.60
24201;BMP280;2801;50.972;7.856;2023-09-18T06:39:39;96667.81;;;19.64
24201;BMP280;2801;50.972;7.856;2023-09-18T06:42:06;96666.63;;;19.69
24201;BMP280;2801;50.972;7.856;2023-09-18T06:44:33;96661.91;;;19.73
24201;BMP280;2801;50.972;7.856;2023-09-18T06:47:00;96671.66;;;19.70
24201;BMP280;2801;50.972;7.856;2023-09-18T06:49:27;96673.63;;;19.66
24201;BMP280;2801;50.972;7.856;2023-09-18T06:51:55;96684.88;;;19.68
24201;BMP280;2801;50.972;7.856;2023-09-18T06:54:22;96691.09;;;19.65
24201;BMP280;2801;50.972;7.856;2023-09-18T06:56:49;96684.06;;;19.68
24201;BMP280;2801;50.972;7.856;2023-09-18T06:59:16;96678.28;;;19.66
24201;BMP280;2801;50.972;7.856;2023-09-18T07:01:44;96684.47;;;19.70
24201;BMP280;2801;50.972;7.856;2023-09-18T07:04:11;96665.00;;;19.75
24201;BMP280;2801;50.972;7.856;2023-09-18T07:06:38;96668.84;;;19.77
24201;BMP280;2801;50.972;7.856;2023-09-18T07:09:05;96666.91;;;19.78
24201;BMP280;2801;50.972;7.856;2023-09-18T07:11:34;96681.28;;;19.78
24201;BMP280;2801;50.972;7.856;2023-09-18T07:14:04;96677.84;;;19.71
24201;BMP280;2801;50.972;7.856;2023-09-18T07:16:32;96668.47;;;19.79
24201;BMP280;2801;50.972;7.856;2023-09-18T07:19:01;96661.41;;;19.85
24201;BMP280;2801;50.972;7.856;2023-09-18T07:21:31;96672.69;;;19.87
24201;BMP280;2801;50.972;7.856;2023-09-18T07:23:58;96694.06;;;19.85
24201;BMP280;2801;50.972;7.856;2023-09-18T07:26:25;96691.69;;;19.90
24201;BMP280;2801;50.972;7.856;2023-09-18T07:28:52;96693.59;;;19.93
24201;BMP280;2801;50.972;7.856;2023-09-18T07:31:20;96674.59;;;19.90
24201;BMP280;2801;50.972;7.856;2023-09-18T07:33:47;96686.19;;;19.94
24201;BMP280;2801;50.972;7.856;2023-09-18T07:36:15;96678.03;;;19.94
24201;BMP280;2801;50.972;7.856;2023-09-18T07:38:42;96685.41;;;19.97
24201;BMP280;2801;50.972;7.856;2023-09-18T07:41:10;96696.31;;;19.93
24201;BMP280;2801;50.972;7.856;2023-09-18T07:43:37;96693.97;;;19.95
24201;BMP280;2801;50.972;7.856;2023-09-18T07:46:06;96692.03;;;19.96
24201;BMP280;2801;50.972;7.856;2023-09-18T07:48:33;96682.69;;;19.97
24201;BMP280;2801;50.972;7.856;2023-09-18T07:51:01;96696.63;;;20.02
24201;BMP280;2801;50.972;7.856;2023-09-18T07:53:28;96687.28;;;20.03
24201;BMP280;2801;50.972;7.856;2023-09-18T07:55:57;96702.81;;;20.10
24201;BMP280;2801;50.972;7.856;2023-09-18T07:58:25;96698.47;;;20.16
24201;BMP280;2801;50.972;7.856;2023-09-18T08:00:56;96713.56;;;20.24
24201;BMP280;2801;50.972;7.856;2023-09-18T08:03:26;96719.34;;;20.29
24201;BMP280;2801;50.972;7.856;2023-09-18T08:05:55;96708.84;;;20.31
24201;BMP280;2801;50.972;7.856;2023-09-18T08:08:23;96723.91;;;20.39
24201;BMP280;2801;50.972;7.856;2023-09-18T08:10:53;96727.41;;;20.40
24201;BMP280;2801;50.972;7.856;2023-09-18T08:13:20;96735.22;;;20.38
24201;BMP280;2801;50.972;7.856;2023-09-18T08:15:47;96731.69;;;20.41
24201;BMP280;2801;50.972;7.856;2023-09-18T08:18:15;96737.88;;;20.45
24201;BMP280;2801;50.972;7.856;2023-09-18T08:20:45;96738.66;;;20.45
24201;BMP280;2801;50.972;7.856;2023-09-18T08:23:13;96741.22;;;20.59
24201;BMP280;2801;50.972;7.856;2023-09-18T08:25:40;96738.00;;;20.68
24201;BMP280;2801;50.972;7.856;2023-09-18T08:28:08;96733.69;;;20.74
24201;BMP280;2801;50.972;7.856;2023-09-18T08:30:36;96736.63;;;20.86
24201;BMP280;2801;50.972;7.856;2023-09-18T08:33:04;96731.19;;;20.86
24201;BMP280;2801;50.972;7.856;2023-09-18T08:35:32;96741.53;;;21.02
24201;BMP280;2801;50.972;7.856;2023-09-18T08:38:00;96736.47;;;21.04
24201;BMP280;2801;50.972;7.856;2023-09-18T08:40:27;96742.59;;;21.11
24201;BMP280;2801;50.972;7.856;2023-09-18T08:42:56;96751.91;;;21.14
24201;BMP280;2801;50.972;7.856;2023-09-18T08:45:49;96744.44;;;21.18
24201;BMP280;2801;50.972;7.856;2023-09-18T08:48:21;96745.19;;;21.22
24201;BMP280;2801;50.972;7.856;2023-09-18T08:50:51;96741.22;;;21.26
24201;BMP280;2801;50.972;7.856;2023-09-18T08:53:18;96745.47;;;21.31
24201;BMP280;2801;50.972;7.856;2023-09-18T08:55:45;96735.28;;;21.35
24201;BMP280;2801;50.972;7.856;2023-09-18T08:58:12;96737.13;;;21.41
24201;BMP280;2801;50.972;7.856;2023-09-18T09:00:40;96735.53;;;21.44
24201;BMP280;2801;50.972;7.856;2023-09-18T09:03:07;96745.63;;;21.47
24201;BMP280;2801;50.972;7.856;2023-09-18T09:05:34;96745.56;;;21.50
24201;BMP280;2801;50.972;7.856;2023-09-18T09:08:02;96755.31;;;21.52
24201;BMP280;2801;50.972;7.856;2023-09-18T09:10:29;96749.41;;;21.57
24201;BMP280;2801;50.972;7.856;2023-09-18T09:12:58;96747.53;;;21.50
24201;BMP280;2801;50.972;7.856;2023-09-18T09:15:43;96748.34;;;21.47
24201;BMP280;2801;50.972;7.856;2023-09-18T09:18:14;96754.28;;;21.42
24201;BMP280;2801;50.972;7.856;2023-09-18T09:20:58;96752.28;;;21.46
24201;BMP280;2801;50.972;7.856;2023-09-18T09:23:29;96749.00;;;21.58
24201;BMP280;2801;50.972;7.856;2023-09-18T09:26:23;96748.09;;;21.65
24201;BMP280;2801;50.972;7.856;2023-09-18T09:28:51;96749.16;;;21.74
24201;BMP280;2801;50.972;7.856;2023-09-18T09:31:27;96759.25;;;21.77
24201;BMP280;2801;50.972;7.856;2023-09-18T09:33:55;96769.34;;;21.80
24201;BMP280;2801;50.972;7.856;2023-09-18T09:36:26;96764.25;;;21.82
24201;BMP280;2801;50.972;7.856;2023-09-18T09:38:57;96771.97;;;21.87
24201;BMP280;2801;50.972;7.856;2023-09-18T09:41:27;96754.75;;;21.90
24201;BMP280;2801;50.972;7.856;2023-09-18T09:43:58;96753.50;;;21.98
24201;BMP280;2801;50.972;7.856;2023-09-18T09:46:25;96757.69;;;22.03
24201;BMP280;2801;50.972;7.856;2023-09-18T09:49:06;96763.97;;;22.00
24201;BMP280;2801;50.972;7.856;2023-09-18T09:51:34;96764.56;;;22.11
24201;BMP280;2801;50.972;7.856;2023-09-18T09:54:03;96747.25;;;22.21
24201;BMP280;2801;50.972;7.856;2023-09-18T09:56:45;96757.84;;;22.42
24201;BMP280;2801;50.972;7.856;2023-09-18T09:59:14;96759.00;;;22.64
24201;BMP280;2801;50.972;7.856;2023-09-18T10:01:43;96755.31;;;22.74
24201;BMP280;2801;50.972;7.856;2023-09-18T10:04:15;96739.91;;;22.83
24201;BMP280;2801;50.972;7.856;2023-09-18T10:06:54;96760.53;;;22.88
24201;BMP280;2801;50.972;7.856;2023-09-18T10:09:26;96754.78;;;22.82
24201;BMP280;2801;50.972;7.856;2023-09-18T10:11:57;96764.63;;;22.76
24201;BMP280;2801;50.972;7.856;2023-09-18T10:14:33;96771.38;;;22.72
24201;BMP280;2801;50.972;7.856;2023-09-18T10:17:22;96759.47;;;22.62
24201;BMP280;2801;50.972;7.856;2023-09-18T10:22:47;96748.44;;;22.43
24201;BMP280;2801;50.972;7.856;2023-09-18T10:25:29;96758.72;;;22.35
24201;BMP280;2801;50.972;7.856;2023-09-18T10:27:59;96770.78;;;22.38
24201;BMP280;2801;50.972;7.856;2023-09-18T10:30:32;96773.56;;;22.34
24201;BMP280;2801;50.972;7.856;2023-09-18T10:33:01;96768.63;;;22.26
24201;BMP280;2801;50.972;7.856;2023-09-18T10:35:29;96762.41;;;22.25
24201;BMP280;2801;50.972;7.856;2023-09-18T10:37:57;96759.69;;;22.25
24201;BMP280;2801;50.972;7.856;2023-09-18T10:40:26;96767.03;;;22.28
24201;BMP280;2801;50.972;7.856;2023-09-18T10:42:57;96757.09;;;22.15
24201;BMP280;2801;50.972;7.856;2023-09-18T10:45:24;96783.13;;;22.23
24201;BMP280;2801;50.972;7.856;2023-09-18T10:47:54;96780.09;;;22.17
24201;BMP280;2801;50.972;7.856;2023-09-18T10:50:27;96781.38;;;22.09
24201;BMP280;2801;50.972;7.856;2023-09-18T10:52:57;96785.47;;;21.98
24201;BMP280;2801;50.972;7.856;2023-09-18T10:55:25;96783.44;;;22.02
24201;BMP280;2801;50.972;7.856;2023-09-18T10:57:55;96778.47;;;21.97
24201;BMP280;2801;50.972;7.856;2023-09-18T11:00:28;96782.25;;;22.03
24201;BMP280;2801;50.972;7.856;2023-09-18T11:03:15;96770.81;;;22.11
24201;BMP280;2801;50.972;7.856;2023-09-18T11:05:45;96764.47;;;22.18
24201;BMP280;2801;50.972;7.856;2023-09-18T11:11:07;96746.13;;;22.18
24201;BMP280;2801;50.972;7.856;2023-09-18T11:13:54;96755.75;;;22.26
24201;BMP280;2801;50.972;7.856;2023-09-18T11:19:07;96767.47;;;22.27
24201;BMP280;2801;50.972;7.856;2023-09-18T11:21:35;96762.34;;;22.29
24201;BMP280;2801;50.972;7.856;2023-09-18T11:24:21;96763.47;;;22.31
24201;BMP280;2801;50.972;7.856;2023-09-18T11:26:51;96773.84;;;22.40
24201;BMP280;2801;50.972;7.856;2023-09-18T11:29:23;96767.16;;;22.44
24201;BMP280;2801;50.972;7.856;2023-09-18T11:34:29;96768.81;;;22.38
24201;BMP280;2801;50.972;7.856;2023-09-18T11:37:22;96758.78;;;22.32
24201;BMP280;2801;50.972;7.856;2023-09-18T11:39:50;96749.69;;;22.38
24201;BMP280;2801;50.972;7.856;2023-09-18T11:42:21;96766.78;;;22.42
24201;BMP280;2801;50.972;7.856;2023-09-18T11:44:56;96769.50;;;22.42
24201;BMP280;2801;50.972;7.856;2023-09-18T11:47:24;96764.84;;;22.43
24201;BMP280;2801;50.972;7.856;2023-09-18T11:49:59;96765.66;;;22.40
24201;BMP280;2801;50.972;7.856;2023-09-18T11:52:30;96762.53;;;22.41
24201;BMP280;2801;50.972;7.856;2023-09-18T11:55:00;96766.44;;;22.40
24201;BMP280;2801;50.972;7.856;2023-09-18T11:57:27;96764.34;;;22.51
24201;BMP280;2801;50.972;7.856;2023-09-18T11:59:56;96756.56;;;22.69
24201;BMP280;2801;50.972;7.856;2023-09-18T12:02:30;96744.47;;;22.70
24201;BMP280;2801;50.972;7.856;2023-09-18T12:05:14;96742.22;;;22.85
24201;BMP280;2801;50.972;7.856;2023-09-18T12:07:47;96735.38;;;22.96
24201;BMP280;2801;50.972;7.856;2023-09-18T12:10:19;96735.84;;;23.11
24201;BMP280;2801;50.972;7.856;2023-09-18T12:12:48;96731.72;;;23.22
24201;BMP280;2801;50.972;7.856;2023-09-18T12:15:18;96726.97;;;23.26
24201;BMP280;2801;50.972;7.856;2023-09-18T12:17:46;96735.88;;;23.30
24201;BMP280;2801;50.972;7.856;2023-09-18T12:20:18;96736.31;;;23.29
24201;BMP280;2801;50.972;7.856;2023-09-18T12:22:50;96725.78;;;23.27
24201;BMP280;2801;50.972;7.856;2023-09-18T12:25:18;96708.31;;;23.21
24201;BMP280;2801;50.972;7.856;2023-09-18T12:27:45;96709.28;;;23.31
24201;BMP280;2801;50.972;7.856;2023-09-18T12:30:13;96697.94;;;23.48
24201;BMP280;2801;50.972;7.856;2023-09-18T12:32:50;96699.78;;;23.55
24201;BMP280;2801;50.972;7.856;2023-09-18T12:35:17;96700.63;;;23.68
24201;BMP280;2801;50.972;7.856;2023-09-18T12:37:48;96697.84;;;23.71
24201;BMP280;2801;50.972;7.856;2023-09-18T12:40:28;96712.28;;;23.72
24201;BMP280;2801;50.972;7.856;2023-09-18T12:42:58;96708.59;;;23.78
24201;BMP280;2801;50.972;7.856;2023-09-18T12:45:27;96699.97;;;23.80
24201;BMP280;2801;50.972;7.856;2023-09-18T12:47:58;96701.59;;;23.77
24201;BMP280;2801;50.972;7.856;2023-09-18T12:50:26;96701.31;;;23.88
24201;BMP280;2801;50.972;7.856;2023-09-18T12:52:53;96689.38;;;23.98
24201;BMP280;2801;50.972;7.856;2023-09-18T12:55:25;96690.22;;;24.11
24201;BMP280;2801;50.972;7.856;2023-09-18T12:57:53;96681.84;;;24.18
24201;BMP280;2801;50.972;7.856;2023-09-18T13:00:22;96685.06;;;24.29
24201;BMP280;2801;50.972;7.856;2023-09-18T13:02:50;96683.69;;;24.37
24201;BMP280;2801;50.972;7.856;2023-09-18T13:05:24;96686.16;;;24.47
24201;BMP280;2801;50.972;7.856;2023-09-18T13:08:04;96686.66;;;24.58
24201;BMP280;2801;50.972;7.856;2023-09-18T13:11:01;96685.59;;;24.68
24201;BMP280;2801;50.972;7.856;2023-09-18T13:13:30;96679.25;;;24.72
24201;BMP280;2801;50.972;7.856;2023-09-18T13:15:59;96689.38;;;24.75
24201;BMP280;2801;50.972;7.856;2023-09-18T13:18:27;96687.25;;;24.66
24201;BMP280;2801;50.972;7.856;2023-09-18T13:20:54;96684.34;;;24.57
24201;BMP280;2801;50.972;7.856;2023-09-18T13:23:29;96685.38;;;24.47
24201;BMP280;2801;50.972;7.856;2023-09-18T13:26:02;96681.91;;;24.59
24201;BMP280;2801;50.972;7.856;2023-09-18T13:28:30;96682.69;;;24.59
24201;BMP280;2801;50.972;7.856;2023-09-18T13:31:04;96671.81;;;24.56
24201;BMP280;2801;50.972;7.856;2023-09-18T13:33:32;96680.94;;;24.37
24201;BMP280;2801;50.972;7.856;2023-09-18T13:36:00;96674.66;;;24.24
24201;BMP280;2801;50.972;7.856;2023-09-18T13:38:27;96681.56;;;24.12
24201;BMP280;2801;50.972;7.856;2023-09-18T13:40:55;96678.44;;;23.98
24201;BMP280;2801;50.972;7.856;2023-09-18T13:43:22;96685.00;;;23.84
24201;BMP280;2801;50.972;7.856;2023-09-18T13:45:50;96687.91;;;23.77
24201;BMP280;2801;50.972;7.856;2023-09-18T13:48:20;96681.31;;;23.75
24201;BMP280;2801;50.972;7.856;2023-09-18T13:50:48;96673.78;;;23.79
24201;BMP280;2801;50.972;7.856;2023-09-18T13:53:15;96673.69;;;23.82
24201;BMP280;2801;50.972;7.856;2023-09-18T13:55:42;96656.94;;;23.80
24201;BMP280;2801;50.972;7.856;2023-09-18T13:58:09;96667.22;;;23.92
24201;BMP280;2801;50.972;7.856;2023-09-18T14:00:37;96657.31;;;23.98
24201;BMP280;2801;50.972;7.856;2023-09-18T14:03:04;96652.66;;;24.11
24201;BMP280;2801;50.972;7.856;2023-09-18T14:05:31;96664.13;;;24.22
24201;BMP280;2801;50.972;7.856;2023-09-18T14:08:01;96656.59;;;24.26
24201;BMP280;2801;50.972;7.856;2023-09-18T14:10:29;96655.28;;;24.31
24201;BMP280;2801;50.972;7.856;2023-09-18T14:12:56;96640.25;;;24.23
24201;BMP280;2801;50.972;7.856;2023-09-18T14:15:24;96642.69;;;24.33
24201;BMP280;2801;50.972;7.856;2023-09-18T14:17:51;96640.88;;;24.43
24201;BMP280;2801;50.972;7.856;2023-09-18T14:20:19;96632.72;;;24.55
24201;BMP280;2801;50.972;7.856;2023-09-18T14:22:47;96629.97;;;24.55
24201;BMP280;2801;50.972;7.856;2023-09-18T14:25:18;96632.72;;;24.55
24201;BMP280;2801;50.972;7.856;2023-09-18T14:27:47;96636.53;;;24.58
24201;BMP280;2801;50.972;7.856;2023-09-18T14:30:14;96620.81;;;24.62
24201;BMP280;2801;50.972;7.856;2023-09-18T14:32:42;96619.16;;;24.64
24201;BMP280;2801;50.972;7.856;2023-09-18T14:35:09;96628.41;;;24.71
24201;BMP280;2801;50.972;7.856;2023-09-18T14:37:37;96626.63;;;24.64
24201;BMP280;2801;50.972;7.856;2023-09-18T14:40:05;96623.47;;;24.49
24201;BMP280;2801;50.972;7.856;2023-09-18T14:42:32;96612.81;;;24.39
24201;BMP280;2801;50.972;7.856;2023-09-18T14:45:00;96615.75;;;24.32